Time;durP1;ratioP1;P1;durP2;ratioP2;P2;SDS_P1;SDS_P2;PMS_P1;PMS_P2;Temp;Humidity;BMP_temperature;BMP_pressure;BME280_temperature;BME280_humidity;BME280_pressure;Samples;Min_cycle;Max_cycle;Signal;HPM_P1;HPM_P2
2023/04/17 00:01:49;;;;;;;41.45;25.77;;;9.00;99.90;;;;;;4996974;28;20026;-89
2023/04/17 00:04:15;;;;;;;48.90;26.95;;;9.00;99.90;;;;;;4998447;28;20026;-90
2023/04/17 00:06:44;;;;;;;46.03;25.73;;;9.00;99.90;;;;;;4995360;28;20045;-90
2023/04/17 00:09:10;;;;;;;44.25;26.55;;;9.00;99.90;;;;;;4995087;28;20088;-90
2023/04/17 00:11:36;;;;;;;46.58;26.58;;;9.00;99.90;;;;;;4994917;28;20034;-90
2023/04/17 00:14:02;;;;;;;45.80;26.02;;;9.00;99.90;;;;;;4995219;28;20505;-90
2023/04/17 00:16:27;;;;;;;46.80;25.45;;;9.00;99.90;;;;;;4995429;28;20018;-90
2023/04/17 00:18:54;;;;;;;45.03;24.80;;;9.00;99.90;;;;;;4996017;28;20081;-90
2023/04/17 00:21:19;;;;;;;47.75;25.67;;;9.00;99.90;;;;;;4984428;28;20023;-90
2023/04/17 00:23:45;;;;;;;40.72;23.85;;;9.00;99.90;;;;;;4994221;28;20514;-89
2023/04/17 00:26:11;;;;;;;41.10;22.10;;;9.00;99.90;;;;;;4995523;28;20394;-90
2023/04/17 00:28:37;;;;;;;41.17;22.33;;;9.00;99.90;;;;;;4995694;28;20793;-90
2023/04/17 00:31:03;;;;;;;40.05;23.10;;;8.90;99.90;;;;;;4995064;28;20156;-90
2023/04/17 00:33:30;;;;;;;38.30;22.45;;;8.90;99.90;;;;;;4994768;28;20137;-90
2023/04/17 00:35:55;;;;;;;42.42;22.52;;;8.90;99.90;;;;;;4995117;28;20028;-90
2023/04/17 00:38:21;;;;;;;37.75;21.92;;;8.90;99.90;;;;;;4995132;28;20117;-91
2023/04/17 00:40:47;;;;;;;38.75;22.90;;;8.80;99.90;;;;;;4995391;28;20014;-90
2023/04/17 00:43:13;;;;;;;36.90;21.50;;;8.80;99.90;;;;;;4994003;28;20042;-90
2023/04/17 00:45:40;;;;;;;39.40;21.88;;;8.80;99.90;;;;;;4992721;28;20073;-90
2023/04/17 00:48:07;;;;;;;35.10;20.70;;;8.70;99.90;;;;;;4990124;28;20117;-90
2023/04/17 00:50:33;;;;;;;33.78;20.30;;;8.70;99.90;;;;;;4995420;28;20026;-90
2023/04/17 00:52:59;;;;;;;42.78;22.25;;;8.70;99.90;;;;;;4994431;28;20044;-91
2023/04/17 00:55:26;;;;;;;42.35;21.58;;;8.70;99.90;;;;;;4993735;28;20030;-90
2023/04/17 00:57:51;;;;;;;36.42;21.17;;;8.70;99.90;;;;;;4995063;28;20120;-90
2023/04/17 01:00:17;;;;;;;40.38;22.75;;;8.70;99.90;;;;;;4994410;28;20023;-90
2023/04/17 01:02:44;;;;;;;39.53;21.90;;;8.70;99.90;;;;;;4984675;28;20023;-90
2023/04/17 01:05:09;;;;;;;39.38;20.40;;;8.70;99.90;;;;;;4994198;28;20061;-89
2023/04/17 01:07:36;;;;;;;36.33;20.88;;;8.70;99.90;;;;;;4994674;28;20058;-89
2023/04/17 01:10:02;;;;;;;39.95;21.75;;;8.60;99.90;;;;;;4996025;28;20425;-91
2023/04/17 01:12:28;;;;;;;36.65;20.73;;;8.70;99.90;;;;;;5001494;28;20042;-90
2023/04/17 01:14:55;;;;;;;39.35;22.27;;;8.60;99.90;;;;;;4994696;28;20015;-90
2023/04/17 01:17:21;;;;;;;37.85;20.85;;;8.60;99.90;;;;;;5003960;28;20034;-90
2023/04/17 01:19:48;;;;;;;35.75;19.80;;;8.60;99.90;;;;;;4995075;28;20026;-90
2023/04/17 01:22:19;;;;;;;33.30;19.55;;;8.60;99.90;;;;;;4994191;28;20030;-90
2023/04/17 01:24:45;;;;;;;34.47;19.77;;;8.60;99.90;;;;;;4976824;28;20041;-90
2023/04/17 01:27:13;;;;;;;39.03;19.70;;;8.60;99.90;;;;;;4993961;28;20022;-88
2023/04/17 01:29:40;;;;;;;38.95;21.35;;;8.60;99.90;;;;;;4995144;28;20030;-90
2023/04/17 01:32:06;;;;;;;35.83;20.10;;;8.60;99.90;;;;;;4994530;28;20450;-90
2023/04/17 01:34:31;;;;;;;38.22;22.35;;;8.50;99.90;;;;;;4993812;28;20392;-89
2023/04/17 01:36:57;;;;;;;42.17;23.00;;;8.60;99.90;;;;;;4994350;28;20026;-90
2023/04/17 01:39:22;;;;;;;38.15;21.90;;;8.50;99.90;;;;;;4993614;28;20034;-90
2023/04/17 01:41:48;;;;;;;45.08;22.67;;;8.50;99.90;;;;;;4994644;28;20034;-90
2023/04/17 01:44:13;;;;;;;42.33;21.73;;;8.50;99.90;;;;;;4994016;28;20041;-91
2023/04/17 01:46:39;;;;;;;39.08;22.13;;;8.50;99.90;;;;;;4998910;28;20120;-89
2023/04/17 01:49:05;;;;;;;38.75;22.02;;;8.50;99.90;;;;;;4994776;28;20029;-88
2023/04/17 01:51:30;;;;;;;41.50;22.95;;;8.50;99.90;;;;;;5002522;28;20068;-90
2023/04/17 01:53:55;;;;;;;38.42;20.75;;;8.50;99.90;;;;;;4996097;28;20494;-90
2023/04/17 01:56:21;;;;;;;47.35;22.35;;;8.60;99.90;;;;;;4993437;28;20030;-90
2023/04/17 01:58:47;;;;;;;39.58;23.27;;;8.60;99.90;;;;;;4993323;28;20109;-90
2023/04/17 02:01:12;;;;;;;41.22;22.65;;;8.60;99.90;;;;;;4992388;28;20109;-90
2023/04/17 02:03:38;;;;;;;45.58;24.88;;;8.50;99.90;;;;;;4995415;28;20084;-90
2023/04/17 02:06:04;;;;;;;44.67;24.10;;;8.50;99.90;;;;;;4993514;28;20474;-90
2023/04/17 02:08:30;;;;;;;42.08;22.88;;;8.50;99.90;;;;;;5009490;28;20112;-90
2023/04/17 02:10:55;;;;;;;39.47;22.63;;;8.50;99.90;;;;;;4993614;28;20030;-90
2023/04/17 02:13:21;;;;;;;39.85;22.92;;;8.50;99.90;;;;;;4993675;28;20517;-90
2023/04/17 02:15:46;;;;;;;42.03;23.58;;;8.50;99.90;;;;;;5008946;28;20031;-91
2023/04/17 02:18:12;;;;;;;45.22;23.33;;;8.50;99.90;;;;;;4992711;28;20022;-90
2023/04/17 02:20:38;;;;;;;40.58;23.20;;;8.50;99.90;;;;;;5003103;28;20026;-90
2023/04/17 02:23:05;;;;;;;40.92;22.70;;;8.50;99.90;;;;;;5005359;28;20035;-90
2023/04/17 02:25:32;;;;;;;48.90;26.60;;;8.40;99.90;;;;;;4992857;28;20117;-90
2023/04/17 02:27:57;;;;;;;47.42;25.33;;;8.50;99.90;;;;;;4992551;28;20026;-90
2023/04/17 02:30:24;;;;;;;43.63;25.00;;;8.50;99.90;;;;;;4989579;28;20054;-90
2023/04/17 02:32:50;;;;;;;49.35;25.38;;;8.40;99.90;;;;;;4996017;28;20035;-89
2023/04/17 02:35:16;;;;;;;41.08;24.08;;;8.40;99.90;;;;;;5013797;28;20026;-90
2023/04/17 02:37:42;;;;;;;47.30;25.50;;;8.40;99.90;;;;;;4998503;28;20490;-89
2023/04/17 02:40:09;;;;;;;47.30;24.67;;;8.40;99.90;;;;;;5003667;28;20037;-89
2023/04/17 02:42:34;;;;;;;46.83;25.80;;;8.40;99.90;;;;;;4993485;28;20073;-90
2023/04/17 02:45:00;;;;;;;41.88;23.58;;;8.40;99.90;;;;;;4993589;28;20510;-90
2023/04/17 02:47:26;;;;;;;48.42;25.48;;;8.40;99.90;;;;;;4994269;28;20528;-90
2023/04/17 02:49:51;;;;;;;48.58;26.23;;;8.40;99.90;;;;;;4992967;28;20529;-91
2023/04/17 02:52:17;;;;;;;47.10;25.27;;;8.40;99.90;;;;;;4993604;28;20034;-90
2023/04/17 02:54:43;;;;;;;57.70;27.20;;;8.40;99.90;;;;;;4991126;28;20387;-89
2023/04/17 02:57:08;;;;;;;47.58;26.23;;;8.40;99.90;;;;;;4993294;28;20022;-90
2023/04/17 02:59:34;;;;;;;54.30;27.65;;;8.40;99.90;;;;;;4992467;28;20041;-89
2023/04/17 03:02:00;;;;;;;50.97;28.35;;;8.40;99.90;;;;;;4992349;28;20060;-91
2023/04/17 03:04:29;;;;;;;49.92;27.25;;;8.40;99.90;;;;;;4989954;28;20511;-89
2023/04/17 03:06:54;;;;;;;50.50;26.77;;;8.40;99.90;;;;;;5008861;28;20084;-90
2023/04/17 03:09:21;;;;;;;52.13;27.92;;;8.40;99.90;;;;;;4988837;28;20145;-90
2023/04/17 03:11:47;;;;;;;50.17;26.33;;;8.40;99.90;;;;;;4993959;28;20422;-90
2023/04/17 03:14:13;;;;;;;61.75;30.00;;;8.30;99.90;;;;;;4992919;28;20033;-90
2023/04/17 03:16:39;;;;;;;46.78;26.55;;;8.40;99.90;;;;;;4992514;28;20031;-90
2023/04/17 03:19:04;;;;;;;54.15;27.38;;;8.40;99.90;;;;;;4993089;28;20027;-90
2023/04/17 03:21:30;;;;;;;58.15;28.58;;;8.30;99.90;;;;;;4992146;28;20113;-90
2023/04/17 03:23:56;;;;;;;55.78;29.77;;;8.30;99.90;;;;;;4992416;28;20208;-90
2023/04/17 03:26:21;;;;;;;54.00;28.80;;;8.30;99.90;;;;;;4992201;28;20023;-91
2023/04/17 03:28:47;;;;;;;55.72;27.80;;;8.30;99.90;;;;;;4992692;28;20026;-89
2023/04/17 03:31:13;;;;;;;56.42;29.90;;;8.30;99.90;;;;;;4992150;28;20026;-90
2023/04/17 03:33:38;;;;;;;55.55;29.38;;;8.30;99.90;;;;;;4996397;28;20645;-90
2023/04/17 03:36:04;;;;;;;66.72;30.67;;;8.30;99.90;;;;;;4996601;28;20031;-90
2023/04/17 03:38:30;;;;;;;59.25;29.27;;;8.20;99.90;;;;;;4995655;28;20038;-90
2023/04/17 03:40:56;;;;;;;57.42;28.15;;;8.20;99.90;;;;;;4996829;28;20584;-90
2023/04/17 03:43:21;;;;;;;61.65;28.92;;;8.20;99.90;;;;;;4996151;28;20125;-89
2023/04/17 03:45:47;;;;;;;66.57;30.73;;;8.20;99.90;;;;;;4991374;28;20118;-89
2023/04/17 03:48:12;;;;;;;50.75;25.58;;;8.20;99.90;;;;;;5005594;28;20423;-90
2023/04/17 03:50:38;;;;;;;63.15;30.73;;;8.20;99.90;;;;;;4997082;28;20057;-89
2023/04/17 03:53:03;;;;;;;66.35;32.08;;;8.20;99.90;;;;;;4996903;28;20034;-90
2023/04/17 03:55:29;;;;;;;61.28;31.23;;;8.20;99.90;;;;;;4995468;28;20026;-90
2023/04/17 03:57:55;;;;;;;59.50;30.00;;;8.20;99.90;;;;;;4995310;28;20050;-89
2023/04/17 04:00:20;;;;;;;59.83;30.13;;;8.20;99.90;;;;;;4995714;28;20019;-90
2023/04/17 04:02:46;;;;;;;66.00;33.10;;;8.20;99.90;;;;;;4995307;28;20121;-90
2023/04/17 04:05:12;;;;;;;57.58;28.45;;;8.20;99.90;;;;;;5012272;28;20081;-90
2023/04/17 04:07:37;;;;;;;63.30;32.03;;;8.20;99.90;;;;;;5011473;28;20034;-90
2023/04/17 04:10:03;;;;;;;57.53;29.08;;;8.20;99.90;;;;;;4990718;28;20018;-89
2023/04/17 04:12:28;;;;;;;71.03;32.97;;;8.20;99.90;;;;;;4994354;28;20065;-89
2023/04/17 04:14:54;;;;;;;64.53;30.52;;;8.20;99.90;;;;;;4998123;28;20034;-90
2023/04/17 04:17:20;;;;;;;65.65;31.02;;;8.20;99.90;;;;;;4993586;28;20041;-90
2023/04/17 04:19:46;;;;;;;64.28;31.75;;;8.20;99.90;;;;;;4995539;28;20081;-90
2023/04/17 04:22:12;;;;;;;66.57;32.78;;;8.20;99.90;;;;;;4996452;28;20653;-90
2023/04/17 04:24:39;;;;;;;67.40;32.40;;;8.20;99.90;;;;;;4992988;28;20022;-90
2023/04/17 04:27:05;;;;;;;62.55;30.10;;;8.20;99.90;;;;;;4992769;28;20022;-90
2023/04/17 04:29:31;;;;;;;57.95;30.70;;;8.20;99.90;;;;;;5003223;28;20054;-89
2023/04/17 04:31:57;;;;;;;62.15;31.70;;;8.30;99.90;;;;;;4990687;28;20439;-89
2023/04/17 04:34:28;;;;;;;62.22;31.45;;;8.30;99.90;;;;;;4995276;28;20022;-90
2023/04/17 04:36:57;;;;;;;59.63;29.75;;;8.30;99.90;;;;;;4995828;28;20029;-90
2023/04/17 04:39:23;;;;;;;61.13;30.50;;;8.30;99.90;;;;;;4989051;28;20038;-89
2023/04/17 04:41:50;;;;;;;55.25;28.08;;;8.30;99.90;;;;;;4994859;28;20042;-90
2023/04/17 04:44:16;;;;;;;61.97;28.42;;;8.30;99.90;;;;;;4991855;28;20034;-90
2023/04/17 04:46:42;;;;;;;56.47;28.88;;;8.30;99.90;;;;;;4986899;28;20053;-90
2023/04/17 04:49:07;;;;;;;58.72;30.27;;;8.20;99.90;;;;;;5000075;28;20025;-90
2023/04/17 04:51:34;;;;;;;58.63;30.58;;;8.30;99.90;;;;;;4990908;28;20125;-89
2023/04/17 04:54:00;;;;;;;59.42;30.63;;;8.30;99.90;;;;;;5005675;23;20098;-90
2023/04/17 04:56:27;;;;;;;56.53;28.98;;;8.30;99.90;;;;;;5046807;28;20025;-90
2023/04/17 04:58:52;;;;;;;48.28;26.17;;;8.30;99.90;;;;;;5049664;28;20037;-90
2023/04/17 05:01:18;;;;;;;59.92;31.15;;;8.40;99.90;;;;;;5048076;28;20032;-90
2023/04/17 05:03:44;;;;;;;59.00;29.88;;;8.30;99.90;;;;;;5039212;28;20029;-90
2023/04/17 05:06:10;;;;;;;67.38;34.08;;;8.30;99.90;;;;;;5046521;28;20036;-90
2023/04/17 05:08:36;;;;;;;65.85;31.75;;;8.30;99.90;;;;;;5053804;28;20014;-90
2023/04/17 05:11:02;;;;;;;70.82;32.30;;;8.30;99.90;;;;;;5055528;28;20556;-90
2023/04/17 05:13:29;;;;;;;65.10;31.95;;;8.30;99.90;;;;;;5055368;28;20037;-91
2023/04/17 05:15:55;;;;;;;67.45;32.55;;;8.30;99.90;;;;;;5044068;28;20044;-90
2023/04/17 05:18:21;;;;;;;57.03;29.58;;;8.40;99.90;;;;;;5046602;28;20063;-91
2023/04/17 05:20:46;;;;;;;57.47;29.65;;;8.40;99.90;;;;;;5049842;28;20057;-91
2023/04/17 05:23:12;;;;;;;54.85;28.67;;;8.40;99.90;;;;;;5051617;28;20075;-92
2023/04/17 05:25:39;;;;;;;52.75;28.13;;;8.40;99.90;;;;;;5051920;28;20063;-89
2023/04/17 05:28:06;;;;;;;51.63;28.20;;;8.40;99.90;;;;;;5050900;28;20029;-89
2023/04/17 05:30:32;;;;;;;49.03;26.58;;;8.40;99.90;;;;;;5050595;28;20075;-90
2023/04/17 05:32:59;;;;;;;57.80;28.60;;;8.40;99.90;;;;;;5053242;28;20087;-90
2023/04/17 05:35:26;;;;;;;59.08;28.20;;;8.40;99.90;;;;;;5051775;28;20128;-90
2023/04/17 05:37:52;;;;;;;51.47;27.20;;;8.40;99.90;;;;;;5050841;28;20025;-89
2023/04/17 05:40:17;;;;;;;54.15;28.83;;;8.40;99.90;;;;;;5053755;28;20099;-90
2023/04/17 05:42:43;;;;;;;52.70;28.13;;;8.40;99.90;;;;;;5053700;28;20480;-89
2023/04/17 05:45:12;;;;;;;50.10;27.67;;;8.50;99.90;;;;;;5053995;28;20036;-89
2023/04/17 05:47:38;;;;;;;58.88;28.55;;;8.40;99.90;;;;;;5053763;28;20096;-89
2023/04/17 05:50:04;;;;;;;54.03;28.77;;;8.40;99.90;;;;;;5054503;28;20033;-90
2023/04/17 05:52:30;;;;;;;53.53;28.00;;;8.50;99.90;;;;;;5051802;28;20040;-89
2023/04/17 05:54:55;;;;;;;51.45;26.15;;;8.50;99.90;;;;;;5067849;28;20049;-90
2023/04/17 05:57:21;;;;;;;53.22;29.30;;;8.50;99.90;;;;;;5049667;28;20481;-90
2023/04/17 05:59:48;;;;;;;48.42;26.55;;;8.50;99.90;;;;;;5047525;28;20480;-90
2023/04/17 06:02:14;;;;;;;59.70;28.50;;;8.50;99.90;;;;;;5048811;28;20769;-89
2023/04/17 06:04:40;;;;;;;55.05;28.60;;;8.50;99.90;;;;;;5049670;28;20037;-90
2023/04/17 06:07:06;;;;;;;52.85;28.88;;;8.50;99.90;;;;;;5052498;28;20080;-89
2023/04/17 06:09:32;;;;;;;54.85;28.20;;;8.50;99.90;;;;;;5054873;28;20029;-88
2023/04/17 06:11:58;;;;;;;52.20;28.98;;;8.60;99.90;;;;;;5056127;28;20115;-90
2023/04/17 06:14:24;;;;;;;55.00;28.08;;;8.50;99.90;;;;;;5057129;28;20116;-89
2023/04/17 06:16:49;;;;;;;54.75;28.33;;;8.60;99.90;;;;;;5050827;28;20492;-89
2023/04/17 06:19:15;;;;;;;55.50;29.35;;;8.60;99.90;;;;;;5056743;28;20122;-90
2023/04/17 06:21:40;;;;;;;52.03;27.77;;;8.60;99.90;;;;;;5058494;28;20093;-90
2023/04/17 06:24:07;;;;;;;59.00;30.30;;;8.70;99.90;;;;;;5053305;28;20036;-89
2023/04/17 06:26:32;;;;;;;57.97;30.13;;;8.60;99.90;;;;;;5052630;28;20100;-89
2023/04/17 06:28:59;;;;;;;59.78;30.55;;;8.70;99.90;;;;;;5046638;28;20021;-90
2023/04/17 06:31:25;;;;;;;58.05;30.48;;;8.70;99.90;;;;;;5041858;28;20040;-90
2023/04/17 06:33:50;;;;;;;57.33;30.45;;;8.70;99.90;;;;;;5041714;28;20028;-90
2023/04/17 06:36:16;;;;;;;52.50;28.27;;;8.70;99.90;;;;;;5049448;28;20029;-91
2023/04/17 06:38:41;;;;;;;60.75;30.35;;;8.80;99.90;;;;;;5048461;28;20036;-90
2023/04/17 06:41:07;;;;;;;55.28;29.85;;;8.80;99.90;;;;;;5054691;28;20044;-90
2023/04/17 06:43:33;;;;;;;58.55;31.10;;;8.90;99.90;;;;;;5054113;28;20108;-91
2023/04/17 06:45:59;;;;;;;58.10;30.73;;;8.90;99.90;;;;;;5052546;28;20377;-90
2023/04/17 06:48:24;;;;;;;51.75;27.10;;;9.00;99.90;;;;;;5048495;28;20032;-90
2023/04/17 06:50:50;;;;;;;57.53;31.85;;;9.00;99.90;;;;;;5053220;28;20029;-90
2023/04/17 06:53:16;;;;;;;54.70;30.80;;;9.00;99.90;;;;;;5052043;28;20038;-90
2023/04/17 06:55:41;;;;;;;47.35;28.63;;;9.00;99.90;;;;;;5051944;28;20105;-90
2023/04/17 06:58:07;;;;;;;53.55;30.65;;;9.00;99.90;;;;;;5050317;28;20063;-84
2023/04/17 07:00:33;;;;;;;57.63;29.15;;;9.00;99.90;;;;;;5048148;28;20116;-84
2023/04/17 07:02:59;;;;;;;59.65;30.63;;;9.10;99.90;;;;;;5049985;28;20025;-83
2023/04/17 07:05:24;;;;;;;50.53;28.25;;;9.10;99.90;;;;;;5047957;28;21736;-84
2023/04/17 07:07:50;;;;;;;60.58;32.15;;;9.20;99.90;;;;;;5045973;28;20029;-83
2023/04/17 07:10:18;;;;;;;56.90;30.00;;;9.20;99.90;;;;;;5048429;28;20055;-87
2023/04/17 07:12:44;;;;;;;50.90;28.67;;;9.30;99.90;;;;;;5051291;28;20120;-85
2023/04/17 07:15:09;;;;;;;55.50;30.30;;;9.30;99.90;;;;;;5050633;28;20124;-90
2023/04/17 07:17:35;;;;;;;48.70;26.90;;;9.30;99.90;;;;;;5055559;28;20386;-90
2023/04/17 07:20:01;;;;;;;50.55;28.65;;;9.40;99.90;;;;;;5045278;28;20112;-91
2023/04/17 07:22:27;;;;;;;51.83;29.75;;;9.40;99.90;;;;;;5053683;28;20478;-90
2023/04/17 07:24:53;;;;;;;47.67;29.10;;;9.40;99.90;;;;;;5038095;28;20044;-90
2023/04/17 07:27:19;;;;;;;45.08;27.80;;;9.40;99.90;;;;;;5051880;28;20108;-90
2023/04/17 07:29:46;;;;;;;52.40;28.83;;;9.50;99.90;;;;;;5053554;28;20067;-91
2023/04/17 07:32:12;;;;;;;50.15;29.40;;;9.50;99.90;;;;;;5051940;28;20055;-90
2023/04/17 07:34:40;;;;;;;49.03;29.08;;;9.50;99.90;;;;;;5049228;28;20025;-90
2023/04/17 07:37:05;;;;;;;46.83;28.10;;;9.50;99.90;;;;;;5056157;28;20061;-91
2023/04/17 07:39:31;;;;;;;54.60;30.25;;;9.50;99.90;;;;;;5043936;28;20512;-91
2023/04/17 07:41:56;;;;;;;46.53;26.85;;;9.60;99.90;;;;;;5051680;28;20072;-90
2023/04/17 07:44:22;;;;;;;53.75;31.25;;;9.60;99.90;;;;;;5041919;28;20079;-90
2023/04/17 07:46:48;;;;;;;44.17;25.95;;;9.60;99.90;;;;;;5054047;28;20018;-91
2023/04/17 07:49:13;;;;;;;52.63;29.70;;;9.60;99.90;;;;;;5054146;28;20029;-90
2023/04/17 07:51:39;;;;;;;46.72;28.10;;;9.50;99.90;;;;;;5055093;28;20025;-90
2023/04/17 07:54:05;;;;;;;49.75;28.15;;;9.50;99.90;;;;;;5054941;28;20081;-90
2023/04/17 07:56:33;;;;;;;46.45;28.17;;;9.50;99.90;;;;;;5054010;28;20478;-90
2023/04/17 07:58:59;;;;;;;48.78;28.23;;;9.60;99.90;;;;;;5051466;28;20032;-89
2023/04/17 08:01:25;;;;;;;46.50;26.83;;;9.60;99.90;;;;;;5054042;28;20116;-90
2023/04/17 08:03:52;;;;;;;44.13;27.55;;;9.80;99.90;;;;;;5058314;28;20063;-90
2023/04/17 08:06:21;;;;;;;48.63;28.88;;;9.80;99.90;;;;;;5054402;28;20033;-91
2023/04/17 08:08:46;;;;;;;46.22;27.70;;;9.90;99.90;;;;;;5043045;28;20025;-90
2023/04/17 08:11:15;;;;;;;48.50;29.23;;;9.90;99.90;;;;;;5055276;28;20485;-90
2023/04/17 08:13:40;;;;;;;45.85;28.52;;;10.00;99.90;;;;;;5052528;28;20131;-90
2023/04/17 08:16:07;;;;;;;47.35;28.98;;;10.00;99.90;;;;;;5051880;28;20067;-90
2023/04/17 08:18:32;;;;;;;47.80;28.33;;;10.10;99.90;;;;;;5053201;28;20045;-90
2023/04/17 08:20:58;;;;;;;51.40;29.35;;;10.20;99.90;;;;;;5054423;28;20479;-90
2023/04/17 08:23:24;;;;;;;45.80;27.92;;;10.30;99.90;;;;;;5054896;28;20033;-90
2023/04/17 08:25:50;;;;;;;49.97;29.65;;;10.40;99.90;;;;;;5056703;28;20377;-90
2023/04/17 08:28:15;;;;;;;48.92;29.48;;;10.50;99.90;;;;;;5053973;28;20032;-89
2023/04/17 08:30:41;;;;;;;45.78;28.48;;;10.60;99.90;;;;;;5055880;28;20053;-89
2023/04/17 08:33:07;;;;;;;44.83;27.42;;;10.70;99.90;;;;;;5053065;28;20033;-88
2023/04/17 08:35:32;;;;;;;47.78;29.48;;;10.90;99.90;;;;;;5049676;28;20033;-88
2023/04/17 08:37:58;;;;;;;51.90;30.23;;;10.90;99.90;;;;;;5053131;28;20029;-88
2023/04/17 08:40:25;;;;;;;48.05;30.17;;;11.00;99.90;;;;;;5054209;28;20492;-88
2023/04/17 08:42:51;;;;;;;51.50;30.42;;;11.00;99.90;;;;;;5054368;28;20040;-88
2023/04/17 08:45:19;;;;;;;50.55;29.70;;;11.10;99.90;;;;;;5053690;28;20025;-89
2023/04/17 08:47:45;;;;;;;44.13;27.52;;;11.10;99.90;;;;;;5053035;28;20036;-88
2023/04/17 08:50:13;;;;;;;53.95;31.00;;;11.20;99.90;;;;;;5055618;28;20021;-89
2023/04/17 08:52:46;;;;;;;47.05;29.48;;;11.30;99.90;;;;;;5054477;28;20381;-87
2023/04/17 08:55:17;;;;;;;48.40;29.23;;;11.50;99.90;;;;;;5041331;28;20102;-89
2023/04/17 08:57:56;;;;;;;48.58;29.95;;;11.50;99.90;;;;;;5037572;28;20021;-88
2023/04/17 09:00:26;;;;;;;44.05;27.35;;;11.80;99.90;;;;;;5055124;28;20025;-89
2023/04/17 09:02:53;;;;;;;42.65;28.48;;;11.90;99.90;;;;;;5054745;28;21325;-89
2023/04/17 09:05:20;;;;;;;46.63;28.98;;;12.10;99.90;;;;;;5054884;28;20028;-88
2023/04/17 09:07:47;;;;;;;44.78;28.08;;;12.30;99.90;;;;;;5049286;28;20035;-88
2023/04/17 09:10:12;;;;;;;41.95;27.40;;;12.40;99.90;;;;;;5054289;28;20060;-89
2023/04/17 09:12:40;;;;;;;42.72;26.77;;;12.40;99.90;;;;;;5057518;28;20048;-89
2023/04/17 09:15:16;;;;;;;42.25;27.70;;;12.50;99.90;;;;;;5046703;28;20026;-89
2023/04/17 09:17:41;;;;;;;39.80;25.13;;;12.60;99.90;;;;;;5052631;28;20055;-89
2023/04/17 09:20:10;;;;;;;43.85;26.30;;;12.60;99.90;;;;;;5055888;28;20107;-88
2023/04/17 09:22:39;;;;;;;43.40;26.77;;;12.70;99.90;;;;;;5053009;28;20092;-89
2023/04/17 09:25:17;;;;;;;42.33;26.42;;;12.70;99.90;;;;;;5049373;28;20124;-89
2023/04/17 09:27:43;;;;;;;39.75;27.00;;;12.90;99.90;;;;;;5051159;28;20053;-88
2023/04/17 09:30:09;;;;;;;40.92;25.40;;;12.90;99.90;;;;;;5066252;28;20063;-89
2023/04/17 09:32:35;;;;;;;40.30;25.85;;;13.00;99.90;;;;;;5048796;28;20048;-89
2023/04/17 09:35:04;;;;;;;38.50;25.80;;;13.10;99.90;;;;;;5052181;28;20025;-89
2023/04/17 09:37:58;;;;;;;45.70;29.77;;;13.20;99.90;;;;;;5052578;28;20040;-89
2023/04/17 09:40:24;;;;;;;39.35;25.05;;;13.00;99.90;;;;;;5047066;28;20040;-88
2023/04/17 09:42:55;;;;;;;44.33;27.80;;;12.90;99.90;;;;;;5054536;28;20029;-88
2023/04/17 09:45:23;;;;;;;42.20;26.73;;;12.80;99.90;;;;;;5054872;28;20021;-88
2023/04/17 09:47:50;;;;;;;39.45;25.10;;;12.70;99.90;;;;;;5055408;28;20025;-88
2023/04/17 09:50:20;;;;;;;37.63;24.55;;;12.70;99.90;;;;;;5053475;28;20927;-88
2023/04/17 09:52:52;;;;;;;38.75;25.00;;;12.70;99.90;;;;;;5054566;28;20444;-88
2023/04/17 09:55:22;;;;;;;38.20;24.27;;;13.00;99.90;;;;;;5054349;28;20064;-88
2023/04/17 09:57:50;;;;;;;39.47;24.88;;;13.30;99.90;;;;;;5055026;28;20515;-89
2023/04/17 10:00:19;;;;;;;38.78;25.33;;;13.50;99.90;;;;;;5052704;28;20029;-88
2023/04/17 10:02:48;;;;;;;38.95;24.67;;;13.60;99.90;;;;;;5054398;28;20071;-87
2023/04/17 10:05:13;;;;;;;36.30;24.85;;;13.60;99.90;;;;;;5054571;28;20059;-89
2023/04/17 10:07:39;;;;;;;37.03;25.92;;;13.60;99.90;;;;;;5053377;28;20021;-88
2023/04/17 10:10:09;;;;;;;41.90;26.50;;;13.60;99.90;;;;;;5054018;28;20033;-89
2023/04/17 10:12:36;;;;;;;41.00;25.33;;;13.70;99.90;;;;;;5054718;28;20126;-88
2023/04/17 10:15:04;;;;;;;36.42;24.15;;;13.70;99.90;;;;;;5054455;28;20025;-87
2023/04/17 10:17:31;;;;;;;37.05;24.80;;;13.70;99.90;;;;;;5053311;28;20500;-88
2023/04/17 10:20:16;;;;;;;37.83;25.48;;;13.80;99.90;;;;;;5055365;28;20044;-88
2023/04/17 10:22:43;;;;;;;40.40;25.45;;;13.90;99.90;;;;;;5050733;28;20401;-88
2023/04/17 10:25:11;;;;;;;37.58;24.98;;;13.90;99.90;;;;;;5051605;28;20029;-88
2023/04/17 10:27:37;;;;;;;34.47;24.38;;;13.90;99.90;;;;;;5054704;28;20021;-89
2023/04/17 10:30:04;;;;;;;34.92;24.27;;;14.00;99.90;;;;;;5037236;28;20029;-88
2023/04/17 10:32:31;;;;;;;34.28;22.55;;;14.00;99.90;;;;;;5053682;28;20048;-88
2023/04/17 10:34:58;;;;;;;32.30;21.17;;;14.10;99.90;;;;;;5053552;28;20070;-88
2023/04/17 10:37:46;;;;;;;34.42;22.40;;;14.20;99.90;;;;;;5050410;28;20029;-88
2023/04/17 10:40:19;;;;;;;34.08;21.88;;;14.30;99.90;;;;;;5044449;28;20025;-87
2023/04/17 10:43:10;;;;;;;28.80;19.77;;;14.30;99.90;;;;;;5052152;28;20385;-88
2023/04/17 10:45:58;;;;;;;32.40;20.02;;;14.40;99.90;;;;;;5054450;28;20408;-88
2023/04/17 10:48:33;;;;;;;27.27;18.58;;;14.40;99.90;;;;;;5055517;28;20029;-88
2023/04/17 10:51:20;;;;;;;29.50;18.05;;;14.40;99.90;;;;;;5055118;28;20017;-88
2023/04/17 10:53:46;;;;;;;27.85;18.23;;;14.40;99.90;;;;;;5053070;28;20139;-88
2023/04/17 10:56:18;;;;;;;25.67;17.35;;;14.40;99.90;;;;;;5052538;28;20029;-88
2023/04/17 10:58:56;;;;;;;24.63;17.23;;;14.50;99.90;;;;;;5052287;28;20032;-88
2023/04/17 11:01:28;;;;;;;27.65;18.30;;;14.50;99.90;;;;;;5055122;28;20021;-88
2023/04/17 11:03:55;;;;;;;;;;;14.50;99.90;;;;;;5053789;28;20033;-88
2023/04/17 11:06:21;;;;;;;24.90;17.73;;;14.50;99.90;;;;;;5051862;28;19904;-87
2023/04/17 11:08:48;;;;;;;28.60;19.13;;;14.50;99.90;;;;;;5054277;28;20040;-88
2023/04/17 11:11:17;;;;;;;28.00;19.05;;;14.50;99.90;;;;;;5053760;28;20489;-87
2023/04/17 11:13:47;;;;;;;29.52;19.00;;;14.60;99.90;;;;;;5052696;28;20040;-88
2023/04/17 11:16:16;;;;;;;27.13;18.52;;;14.50;99.90;;;;;;5055112;28;20013;-88
2023/04/17 11:18:45;;;;;;;25.15;17.65;;;14.60;99.90;;;;;;5053633;28;20017;-87
2023/04/17 11:21:11;;;;;;;28.58;17.50;;;14.70;99.90;;;;;;5052373;28;20052;-88
2023/04/17 11:23:38;;;;;;;24.65;17.77;;;14.80;99.90;;;;;;5052968;28;20064;-88
2023/04/17 11:26:04;;;;;;;26.13;18.30;;;15.00;99.90;;;;;;5044375;28;20029;-89
2023/04/17 11:28:30;;;;;;;30.83;19.63;;;15.00;99.90;;;;;;5053584;28;20013;-87
2023/04/17 11:30:55;;;;;;;29.27;19.00;;;15.00;99.90;;;;;;5053413;28;20040;-88
2023/04/17 11:33:21;;;;;;;25.95;18.42;;;15.00;99.90;;;;;;5051505;28;20770;-87
2023/04/17 11:35:46;;;;;;;28.35;17.70;;;15.10;99.90;;;;;;5054357;28;20025;-88
2023/04/17 11:38:20;;;;;;;23.05;16.20;;;15.20;99.90;;;;;;5053132;28;20029;-88
2023/04/17 11:40:51;;;;;;;22.25;15.27;;;15.40;99.90;;;;;;5053993;28;20033;-88
2023/04/17 11:43:19;;;;;;;21.30;14.52;;;15.40;98.50;;;;;;5052206;28;20048;-88
2023/04/17 11:45:50;;;;;;;26.20;14.85;;;15.30;97.30;;;;;;5053513;28;20032;-88
2023/04/17 11:48:19;;;;;;;19.58;13.10;;;15.10;95.70;;;;;;5053060;28;20025;-87
2023/04/17 11:50:45;;;;;;;22.55;13.40;;;15.00;96.80;;;;;;5053206;28;20029;-88
2023/04/17 11:53:16;;;;;;;22.98;15.25;;;15.00;97.10;;;;;;5052756;28;20132;-87
2023/04/17 11:55:44;;;;;;;23.30;15.48;;;15.30;97.80;;;;;;5051412;28;20112;-88
2023/04/17 11:58:12;;;;;;;20.85;12.98;;;15.40;96.90;;;;;;5056250;28;20048;-87
2023/04/17 12:00:39;;;;;;;21.55;15.18;;;15.50;97.10;;;;;;5056148;28;20036;-88
2023/04/17 12:03:33;;;;;;;19.90;14.23;;;15.60;96.90;;;;;;5056837;28;20128;-88
2023/04/17 12:06:01;;;;;;;22.83;14.70;;;15.60;96.90;;;;;;5046611;28;20029;-88
2023/04/17 12:08:28;;;;;;;22.92;15.25;;;15.80;96.50;;;;;;5052850;28;20021;-87
2023/04/17 12:10:56;;;;;;;21.45;15.10;;;15.90;95.90;;;;;;5053311;28;20025;-88
2023/04/17 12:13:22;;;;;;;20.30;14.18;;;15.90;93.90;;;;;;5056978;28;20032;-87
2023/04/17 12:15:48;;;;;;;24.73;14.93;;;15.90;93.00;;;;;;5056674;28;20036;-87
2023/04/17 12:18:14;;;;;;;22.23;14.38;;;15.70;93.10;;;;;;5055554;28;20408;-88
2023/04/17 12:20:39;;;;;;;21.23;14.13;;;15.70;93.80;;;;;;5056110;28;20025;-88
2023/04/17 12:23:05;;;;;;;21.38;14.02;;;15.90;94.30;;;;;;5055028;28;20182;-87
2023/04/17 12:25:32;;;;;;;19.13;13.23;;;15.90;93.00;;;;;;5057016;28;20028;-87
2023/04/17 12:27:58;;;;;;;21.90;13.35;;;15.90;92.90;;;;;;5047171;28;20038;-88
2023/04/17 12:30:28;;;;;;;19.98;13.85;;;15.90;91.40;;;;;;5047061;28;20040;-88
2023/04/17 12:32:55;;;;;;;18.98;14.48;;;15.80;91.30;;;;;;5057328;28;20040;-88